sensor_id;sensor_type;location;lat;lon;timestamp;P1;durP1;ratioP1;P2;durP2;ratioP2
45228;SDS011;30967;51.728;8.682;2022-10-04T00:01:28;0.10;;;0.10;;
45228;SDS011;30967;51.728;8.682;2022-10-04T00:04:04;0.10;;;0.10;;
45228;SDS011;30967;51.728;8.682;2022-10-04T00:06:35;0.10;;;0.10;;
45228;SDS011;30967;51.728;8.682;2022-10-04T00:09:06;0.10;;;0.10;;
45228;SDS011;30967;51.728;8.682;2022-10-04T00:11:37;0.10;;;0.10;;
45228;SDS011;30967;51.728;8.682;2022-10-04T00:14:13;0.10;;;0.10;;
45228;SDS011;30967;51.728;8.682;2022-10-04T00:16:43;0.10;;;0.10;;
45228;SDS011;30967;51.728;8.682;2022-10-04T00:24:26;0.10;;;0.10;;
45228;SDS011;30967;51.728;8.682;2022-10-04T00:30:33;0.10;;;0.10;;
45228;SDS011;30967;51.728;8.682;2022-10-04T00:32:47;0.10;;;0.10;;
45228;SDS011;30967;51.728;8.682;2022-10-04T00:40:36;0.10;;;0.10;;
45228;SDS011;30967;51.728;8.682;2022-10-04T00:43:25;0.15;;;0.15;;
45228;SDS011;30967;51.728;8.682;2022-10-04T00:46:05;0.10;;;0.10;;
45228;SDS011;30967;51.728;8.682;2022-10-04T00:56:43;0.10;;;0.10;;
45228;SDS011;30967;51.728;8.682;2022-10-04T01:02:13;0.10;;;0.10;;
45228;SDS011;30967;51.728;8.682;2022-10-04T01:07:21;0.10;;;0.10;;
45228;SDS011;30967;51.728;8.682;2022-10-04T01:10:12;0.10;;;0.10;;
45228;SDS011;30967;51.728;8.682;2022-10-04T01:12:44;0.10;;;0.10;;
45228;SDS011;30967;51.728;8.682;2022-10-04T01:15:34;0.10;;;0.10;;
45228;SDS011;30967;51.728;8.682;2022-10-04T01:20:53;0.10;;;0.10;;
45228;SDS011;30967;51.728;8.682;2022-10-04T01:23:31;0.10;;;0.10;;
45228;SDS011;30967;51.728;8.682;2022-10-04T01:28:54;0.10;;;0.10;;
45228;SDS011;30967;51.728;8.682;2022-10-04T01:31:25;0.10;;;0.10;;
45228;SDS011;30967;51.728;8.682;2022-10-04T01:33:52;0.10;;;0.10;;
45228;SDS011;30967;51.728;8.682;2022-10-04T01:36:19;0.10;;;0.10;;
45228;SDS011;30967;51.728;8.682;2022-10-04T01:38:45;0.10;;;0.10;;
45228;SDS011;30967;51.728;8.682;2022-10-04T01:41:11;0.10;;;0.10;;
45228;SDS011;30967;51.728;8.682;2022-10-04T01:43:44;0.10;;;0.10;;
45228;SDS011;30967;51.728;8.682;2022-10-04T01:46:15;0.10;;;0.10;;
45228;SDS011;30967;51.728;8.682;2022-10-04T01:48:44;0.10;;;0.10;;
45228;SDS011;30967;51.728;8.682;2022-10-04T01:51:17;0.10;;;0.10;;
45228;SDS011;30967;51.728;8.682;2022-10-04T01:54:13;0.10;;;0.10;;
45228;SDS011;30967;51.728;8.682;2022-10-04T01:59:20;0.10;;;0.10;;
45228;SDS011;30967;51.728;8.682;2022-10-04T02:01:54;0.10;;;0.10;;
45228;SDS011;30967;51.728;8.682;2022-10-04T02:04:43;0.10;;;0.10;;
45228;SDS011;30967;51.728;8.682;2022-10-04T02:07:16;0.10;;;0.10;;
45228;SDS011;30967;51.728;8.682;2022-10-04T02:09:45;0.10;;;0.10;;
45228;SDS011;30967;51.728;8.682;2022-10-04T02:12:15;0.10;;;0.10;;
45228;SDS011;30967;51.728;8.682;2022-10-04T02:14:43;0.10;;;0.10;;
45228;SDS011;30967;51.728;8.682;2022-10-04T02:17:18;0.10;;;0.10;;
45228;SDS011;30967;51.728;8.682;2022-10-04T02:19:53;0.10;;;0.10;;
45228;SDS011;30967;51.728;8.682;2022-10-04T02:22:21;0.10;;;0.10;;
45228;SDS011;30967;51.728;8.682;2022-10-04T02:24:48;0.10;;;0.10;;
45228;SDS011;30967;51.728;8.682;2022-10-04T02:27:16;0.10;;;0.10;;
45228;SDS011;30967;51.728;8.682;2022-10-04T02:29:42;0.10;;;0.10;;
45228;SDS011;30967;51.728;8.682;2022-10-04T02:32:07;0.10;;;0.10;;
45228;SDS011;30967;51.728;8.682;2022-10-04T02:34:53;0.10;;;0.10;;
45228;SDS011;30967;51.728;8.682;2022-10-04T02:37:24;0.17;;;0.17;;
45228;SDS011;30967;51.728;8.682;2022-10-04T02:40:02;0.10;;;0.10;;
45228;SDS011;30967;51.728;8.682;2022-10-04T02:42:41;0.10;;;0.10;;
45228;SDS011;30967;51.728;8.682;2022-10-04T02:51:15;0.10;;;0.10;;
45228;SDS011;30967;51.728;8.682;2022-10-04T02:53:47;0.20;;;0.20;;
45228;SDS011;30967;51.728;8.682;2022-10-04T02:56:35;0.10;;;0.10;;
45228;SDS011;30967;51.728;8.682;2022-10-04T02:59:02;0.10;;;0.10;;
45228;SDS011;30967;51.728;8.682;2022-10-04T03:01:40;0.10;;;0.10;;
45228;SDS011;30967;51.728;8.682;2022-10-04T03:04:13;0.10;;;0.10;;
45228;SDS011;30967;51.728;8.682;2022-10-04T03:06:40;0.10;;;0.10;;
45228;SDS011;30967;51.728;8.682;2022-10-04T03:09:09;0.10;;;0.10;;
45228;SDS011;30967;51.728;8.682;2022-10-04T03:11:36;0.10;;;0.10;;
45228;SDS011;30967;51.728;8.682;2022-10-04T03:14:14;0.10;;;0.10;;
45228;SDS011;30967;51.728;8.682;2022-10-04T03:16:43;0.20;;;0.20;;
45228;SDS011;30967;51.728;8.682;2022-10-04T03:19:11;0.10;;;0.10;;
45228;SDS011;30967;51.728;8.682;2022-10-04T03:21:39;0.10;;;0.10;;
45228;SDS011;30967;51.728;8.682;2022-10-04T03:24:08;0.10;;;0.10;;
45228;SDS011;30967;51.728;8.682;2022-10-04T03:26:43;0.10;;;0.10;;
45228;SDS011;30967;51.728;8.682;2022-10-04T03:29:12;0.10;;;0.10;;
45228;SDS011;30967;51.728;8.682;2022-10-04T03:31:40;0.10;;;0.10;;
45228;SDS011;30967;51.728;8.682;2022-10-04T03:34:12;0.10;;;0.10;;
45228;SDS011;30967;51.728;8.682;2022-10-04T03:36:47;0.10;;;0.10;;
45228;SDS011;30967;51.728;8.682;2022-10-04T03:39:51;0.10;;;0.10;;
45228;SDS011;30967;51.728;8.682;2022-10-04T03:42:17;0.10;;;0.10;;
45228;SDS011;30967;51.728;8.682;2022-10-04T03:44:46;0.10;;;0.10;;
45228;SDS011;30967;51.728;8.682;2022-10-04T03:47:15;0.10;;;0.10;;
45228;SDS011;30967;51.728;8.682;2022-10-04T03:49:45;0.10;;;0.10;;
45228;SDS011;30967;51.728;8.682;2022-10-04T03:52:16;0.10;;;0.10;;
45228;SDS011;30967;51.728;8.682;2022-10-04T03:54:46;0.10;;;0.10;;
45228;SDS011;30967;51.728;8.682;2022-10-04T03:57:13;0.10;;;0.10;;
45228;SDS011;30967;51.728;8.682;2022-10-04T03:59:39;0.10;;;0.10;;
45228;SDS011;30967;51.728;8.682;2022-10-04T04:07:23;0.10;;;0.10;;
45228;SDS011;30967;51.728;8.682;2022-10-04T04:12:42;0.10;;;0.10;;
45228;SDS011;30967;51.728;8.682;2022-10-04T04:15:12;0.10;;;0.10;;
45228;SDS011;30967;51.728;8.682;2022-10-04T04:17:40;0.10;;;0.10;;
45228;SDS011;30967;51.728;8.682;2022-10-04T04:20:27;0.10;;;0.10;;
45228;SDS011;30967;51.728;8.682;2022-10-04T04:25:41;0.10;;;0.10;;
45228;SDS011;30967;51.728;8.682;2022-10-04T04:30:46;0.10;;;0.10;;
45228;SDS011;30967;51.728;8.682;2022-10-04T04:33:24;0.10;;;0.10;;
45228;SDS011;30967;51.728;8.682;2022-10-04T04:35:55;0.10;;;0.10;;
45228;SDS011;30967;51.728;8.682;2022-10-04T04:38:29;0.10;;;0.10;;
45228;SDS011;30967;51.728;8.682;2022-10-04T04:40:56;0.10;;;0.10;;
45228;SDS011;30967;51.728;8.682;2022-10-04T04:43:32;0.10;;;0.10;;
45228;SDS011;30967;51.728;8.682;2022-10-04T04:45:59;0.10;;;0.10;;
45228;SDS011;30967;51.728;8.682;2022-10-04T04:48:26;0.10;;;0.10;;
45228;SDS011;30967;51.728;8.682;2022-10-04T04:50:56;0.10;;;0.10;;
45228;SDS011;30967;51.728;8.682;2022-10-04T04:53:23;0.10;;;0.10;;
45228;SDS011;30967;51.728;8.682;2022-10-04T04:55:56;0.10;;;0.10;;
45228;SDS011;30967;51.728;8.682;2022-10-04T04:58:24;0.10;;;0.10;;
45228;SDS011;30967;51.728;8.682;2022-10-04T05:03:19;0.10;;;0.10;;
45228;SDS011;30967;51.728;8.682;2022-10-04T05:05:45;0.10;;;0.10;;
45228;SDS011;30967;51.728;8.682;2022-10-04T05:08:17;0.10;;;0.10;;
45228;SDS011;30967;51.728;8.682;2022-10-04T05:11:11;0.10;;;0.10;;
45228;SDS011;30967;51.728;8.682;2022-10-04T05:13:49;0.10;;;0.10;;
45228;SDS011;30967;51.728;8.682;2022-10-04T05:18:59;0.10;;;0.10;;
45228;SDS011;30967;51.728;8.682;2022-10-04T05:21:29;0.10;;;0.10;;
45228;SDS011;30967;51.728;8.682;2022-10-04T05:23:57;0.10;;;0.10;;
45228;SDS011;30967;51.728;8.682;2022-10-04T05:26:33;0.10;;;0.10;;
45228;SDS011;30967;51.728;8.682;2022-10-04T05:29:00;0.10;;;0.10;;
45228;SDS011;30967;51.728;8.682;2022-10-04T05:34:23;0.10;;;0.10;;
45228;SDS011;30967;51.728;8.682;2022-10-04T05:42:48;0.10;;;0.10;;
45228;SDS011;30967;51.728;8.682;2022-10-04T05:45:20;0.10;;;0.10;;
45228;SDS011;30967;51.728;8.682;2022-10-04T05:47:49;0.10;;;0.10;;
45228;SDS011;30967;51.728;8.682;2022-10-04T05:50:36;0.10;;;0.10;;
45228;SDS011;30967;51.728;8.682;2022-10-04T05:58:56;0.13;;;0.13;;
45228;SDS011;30967;51.728;8.682;2022-10-04T06:13:24;0.17;;;0.17;;
45228;SDS011;30967;51.728;8.682;2022-10-04T06:16:10;0.10;;;0.10;;
45228;SDS011;30967;51.728;8.682;2022-10-04T06:24:10;0.10;;;0.10;;
45228;SDS011;30967;51.728;8.682;2022-10-04T06:26:42;0.10;;;0.10;;
45228;SDS011;30967;51.728;8.682;2022-10-04T06:29:16;0.10;;;0.10;;
45228;SDS011;30967;51.728;8.682;2022-10-04T06:37:17;0.10;;;0.10;;
45228;SDS011;30967;51.728;8.682;2022-10-04T06:54:23;0.10;;;0.10;;
45228;SDS011;30967;51.728;8.682;2022-10-04T07:05:24;0.10;;;0.10;;
45228;SDS011;30967;51.728;8.682;2022-10-04T07:08:01;0.10;;;0.10;;
45228;SDS011;30967;51.728;8.682;2022-10-04T07:10:37;0.10;;;0.10;;
45228;SDS011;30967;51.728;8.682;2022-10-04T07:13:16;0.10;;;0.10;;
45228;SDS011;30967;51.728;8.682;2022-10-04T07:16:10;0.20;;;0.20;;
45228;SDS011;30967;51.728;8.682;2022-10-04T07:19:02;0.10;;;0.10;;
45228;SDS011;30967;51.728;8.682;2022-10-04T07:21:41;0.10;;;0.10;;
45228;SDS011;30967;51.728;8.682;2022-10-04T07:24:25;0.10;;;0.10;;
45228;SDS011;30967;51.728;8.682;2022-10-04T07:27:03;0.10;;;0.10;;
45228;SDS011;30967;51.728;8.682;2022-10-04T07:29:35;0.10;;;0.10;;
45228;SDS011;30967;51.728;8.682;2022-10-04T07:37:10;0.10;;;0.10;;
45228;SDS011;30967;51.728;8.682;2022-10-04T07:44:46;0.10;;;0.10;;
45228;SDS011;30967;51.728;8.682;2022-10-04T07:49:55;0.10;;;0.10;;
45228;SDS011;30967;51.728;8.682;2022-10-04T08:00:52;0.10;;;0.10;;
45228;SDS011;30967;51.728;8.682;2022-10-04T08:03:36;0.10;;;0.10;;
45228;SDS011;30967;51.728;8.682;2022-10-04T08:09:13;0.10;;;0.10;;
45228;SDS011;30967;51.728;8.682;2022-10-04T08:20:01;0.10;;;0.10;;
45228;SDS011;30967;51.728;8.682;2022-10-04T08:25:36;0.10;;;0.10;;
45228;SDS011;30967;51.728;8.682;2022-10-04T08:34:09;0.10;;;0.10;;
45228;SDS011;30967;51.728;8.682;2022-10-04T08:37:00;0.10;;;0.10;;
45228;SDS011;30967;51.728;8.682;2022-10-04T08:48:55;0.10;;;0.10;;
45228;SDS011;30967;51.728;8.682;2022-10-04T09:00:31;0.10;;;0.10;;
45228;SDS011;30967;51.728;8.682;2022-10-04T09:03:55;0.10;;;0.10;;
45228;SDS011;30967;51.728;8.682;2022-10-04T09:06:35;0.10;;;0.10;;
45228;SDS011;30967;51.728;8.682;2022-10-04T09:12:27;0.10;;;0.10;;
45228;SDS011;30967;51.728;8.682;2022-10-04T09:15:23;0.10;;;0.10;;
45228;SDS011;30967;51.728;8.682;2022-10-04T09:18:19;0.10;;;0.10;;
45228;SDS011;30967;51.728;8.682;2022-10-04T09:26:42;0.10;;;0.10;;
45228;SDS011;30967;51.728;8.682;2022-10-04T09:29:39;0.10;;;0.10;;
45228;SDS011;30967;51.728;8.682;2022-10-04T09:38:06;0.10;;;0.10;;
45228;SDS011;30967;51.728;8.682;2022-10-04T09:52:10;0.10;;;0.10;;
45228;SDS011;30967;51.728;8.682;2022-10-04T09:55:07;0.10;;;0.10;;
45228;SDS011;30967;51.728;8.682;2022-10-04T09:58:05;0.10;;;0.10;;
45228;SDS011;30967;51.728;8.682;2022-10-04T10:01:00;0.10;;;0.10;;
45228;SDS011;30967;51.728;8.682;2022-10-04T10:09:27;0.10;;;0.10;;
45228;SDS011;30967;51.728;8.682;2022-10-04T10:12:34;0.10;;;0.10;;
45228;SDS011;30967;51.728;8.682;2022-10-04T10:16:00;0.10;;;0.10;;
45228;SDS011;30967;51.728;8.682;2022-10-04T10:19:02;0.10;;;0.10;;
45228;SDS011;30967;51.728;8.682;2022-10-04T10:21:51;0.10;;;0.10;;
45228;SDS011;30967;51.728;8.682;2022-10-04T10:50:43;0.10;;;0.10;;
45228;SDS011;30967;51.728;8.682;2022-10-04T11:17:12;0.10;;;0.10;;
45228;SDS011;30967;51.728;8.682;2022-10-04T11:23:05;0.10;;;0.10;;
45228;SDS011;30967;51.728;8.682;2022-10-04T11:28:36;0.10;;;0.10;;
45228;SDS011;30967;51.728;8.682;2022-10-04T11:43:32;0.10;;;0.10;;
45228;SDS011;30967;51.728;8.682;2022-10-04T11:55:19;0.10;;;0.10;;
45228;SDS011;30967;51.728;8.682;2022-10-04T11:58:16;0.10;;;0.10;;
45228;SDS011;30967;51.728;8.682;2022-10-04T12:03:47;0.10;;;0.10;;
45228;SDS011;30967;51.728;8.682;2022-10-04T12:06:22;0.10;;;0.10;;
45228;SDS011;30967;51.728;8.682;2022-10-04T12:17:59;0.10;;;0.10;;
45228;SDS011;30967;51.728;8.682;2022-10-04T12:23:47;0.10;;;0.10;;
45228;SDS011;30967;51.728;8.682;2022-10-04T12:40:52;0.10;;;0.10;;
45228;SDS011;30967;51.728;8.682;2022-10-04T12:43:22;0.10;;;0.10;;
45228;SDS011;30967;51.728;8.682;2022-10-04T12:57:36;0.10;;;0.10;;
45228;SDS011;30967;51.728;8.682;2022-10-04T13:00:22;0.10;;;0.10;;
45228;SDS011;30967;51.728;8.682;2022-10-04T13:05:57;0.10;;;0.10;;
45228;SDS011;30967;51.728;8.682;2022-10-04T13:17:15;0.00;;;0.00;;
45228;SDS011;30967;51.728;8.682;2022-10-04T13:22:46;0.08;;;0.08;;
45228;SDS011;30967;51.728;8.682;2022-10-04T13:33:45;0.10;;;0.10;;
45228;SDS011;30967;51.728;8.682;2022-10-04T13:39:08;0.00;;;0.00;;
45228;SDS011;30967;51.728;8.682;2022-10-04T13:47:35;0.00;;;0.00;;
45228;SDS011;30967;51.728;8.682;2022-10-04T14:10:08;0.00;;;0.00;;
45228;SDS011;30967;51.728;8.682;2022-10-04T14:12:40;0.00;;;0.00;;
45228;SDS011;30967;51.728;8.682;2022-10-04T14:29:59;0.00;;;0.00;;
45228;SDS011;30967;51.728;8.682;2022-10-04T14:35:56;0.00;;;0.00;;
45228;SDS011;30967;51.728;8.682;2022-10-04T14:38:37;0.00;;;0.00;;
45228;SDS011;30967;51.728;8.682;2022-10-04T14:46:58;0.00;;;0.00;;
45228;SDS011;30967;51.728;8.682;2022-10-04T15:01:21;0.00;;;0.00;;
45228;SDS011;30967;51.728;8.682;2022-10-04T15:06:53;0.00;;;0.00;;
45228;SDS011;30967;51.728;8.682;2022-10-04T15:09:41;0.00;;;0.00;;
45228;SDS011;30967;51.728;8.682;2022-10-04T15:17:39;0.00;;;0.00;;
45228;SDS011;30967;51.728;8.682;2022-10-04T15:20:33;0.00;;;0.00;;
45228;SDS011;30967;51.728;8.682;2022-10-04T15:25:50;0.00;;;0.00;;
45228;SDS011;30967;51.728;8.682;2022-10-04T15:28:44;0.00;;;0.00;;
45228;SDS011;30967;51.728;8.682;2022-10-04T15:31:23;0.00;;;0.00;;
45228;SDS011;30967;51.728;8.682;2022-10-04T15:34:11;0.00;;;0.00;;
45228;SDS011;30967;51.728;8.682;2022-10-04T15:36:46;0.00;;;0.00;;
45228;SDS011;30967;51.728;8.682;2022-10-04T15:55:56;0.00;;;0.00;;
45228;SDS011;30967;51.728;8.682;2022-10-04T15:59:24;0.00;;;0.00;;
45228;SDS011;30967;51.728;8.682;2022-10-04T16:06:51;0.00;;;0.00;;
45228;SDS011;30967;51.728;8.682;2022-10-04T16:09:23;0.00;;;0.00;;
45228;SDS011;30967;51.728;8.682;2022-10-04T16:12:16;0.00;;;0.00;;
45228;SDS011;30967;51.728;8.682;2022-10-04T16:15:19;0.00;;;0.00;;
45228;SDS011;30967;51.728;8.682;2022-10-04T16:25:52;0.00;;;0.00;;
45228;SDS011;30967;51.728;8.682;2022-10-04T16:28:25;0.00;;;0.00;;
45228;SDS011;30967;51.728;8.682;2022-10-04T16:33:52;0.00;;;0.00;;
45228;SDS011;30967;51.728;8.682;2022-10-04T16:36:27;0.00;;;0.00;;
45228;SDS011;30967;51.728;8.682;2022-10-04T16:39:28;0.00;;;0.00;;
45228;SDS011;30967;51.728;8.682;2022-10-04T16:42:16;0.00;;;0.00;;
45228;SDS011;30967;51.728;8.682;2022-10-04T16:44:48;0.00;;;0.00;;
45228;SDS011;30967;51.728;8.682;2022-10-04T16:47:22;0.00;;;0.00;;
45228;SDS011;30967;51.728;8.682;2022-10-04T16:49:58;0.00;;;0.00;;
45228;SDS011;30967;51.728;8.682;2022-10-04T16:52:31;0.00;;;0.00;;
45228;SDS011;30967;51.728;8.682;2022-10-04T16:55:08;0.00;;;0.00;;
45228;SDS011;30967;51.728;8.682;2022-10-04T17:06:50;0.00;;;0.00;;
45228;SDS011;30967;51.728;8.682;2022-10-04T17:09:46;0.00;;;0.00;;
45228;SDS011;30967;51.728;8.682;2022-10-04T17:26:18;0.08;;;0.08;;
45228;SDS011;30967;51.728;8.682;2022-10-04T17:31:56;0.00;;;0.00;;
45228;SDS011;30967;51.728;8.682;2022-10-04T17:37:22;0.10;;;0.10;;
45228;SDS011;30967;51.728;8.682;2022-10-04T17:48:29;0.00;;;0.00;;
45228;SDS011;30967;51.728;8.682;2022-10-04T17:54:10;0.00;;;0.00;;
45228;SDS011;30967;51.728;8.682;2022-10-04T17:59:42;0.00;;;0.00;;
45228;SDS011;30967;51.728;8.682;2022-10-04T18:04:46;0.10;;;0.10;;
45228;SDS011;30967;51.728;8.682;2022-10-04T18:07:23;0.00;;;0.00;;
45228;SDS011;30967;51.728;8.682;2022-10-04T18:10:13;0.10;;;0.10;;
45228;SDS011;30967;51.728;8.682;2022-10-04T18:13:00;0.00;;;0.00;;
45228;SDS011;30967;51.728;8.682;2022-10-04T18:15:37;0.10;;;0.10;;
45228;SDS011;30967;51.728;8.682;2022-10-04T18:23:24;0.10;;;0.10;;
45228;SDS011;30967;51.728;8.682;2022-10-04T18:25:55;0.10;;;0.10;;
45228;SDS011;30967;51.728;8.682;2022-10-04T18:28:25;0.00;;;0.00;;
45228;SDS011;30967;51.728;8.682;2022-10-04T18:30:51;0.10;;;0.10;;
45228;SDS011;30967;51.728;8.682;2022-10-04T18:38:39;0.10;;;0.10;;
45228;SDS011;30967;51.728;8.682;2022-10-04T18:41:14;0.10;;;0.10;;
45228;SDS011;30967;51.728;8.682;2022-10-04T18:46:24;0.03;;;0.03;;
45228;SDS011;30967;51.728;8.682;2022-10-04T18:49:18;0.00;;;0.00;;
45228;SDS011;30967;51.728;8.682;2022-10-04T18:51:50;0.10;;;0.10;;
45228;SDS011;30967;51.728;8.682;2022-10-04T19:00:24;0.10;;;0.10;;
45228;SDS011;30967;51.728;8.682;2022-10-04T19:14:11;0.00;;;0.00;;
45228;SDS011;30967;51.728;8.682;2022-10-04T19:17:04;0.10;;;0.10;;
45228;SDS011;30967;51.728;8.682;2022-10-04T19:22:30;0.10;;;0.10;;
45228;SDS011;30967;51.728;8.682;2022-10-04T19:28:23;0.10;;;0.10;;
45228;SDS011;30967;51.728;8.682;2022-10-04T19:43:21;0.10;;;0.10;;
45228;SDS011;30967;51.728;8.682;2022-10-04T19:55:56;0.10;;;0.10;;
45228;SDS011;30967;51.728;8.682;2022-10-04T20:01:15;0.10;;;0.10;;
45228;SDS011;30967;51.728;8.682;2022-10-04T20:03:43;0.10;;;0.10;;
45228;SDS011;30967;51.728;8.682;2022-10-04T20:06:09;0.10;;;0.10;;
45228;SDS011;30967;51.728;8.682;2022-10-04T20:11:18;0.10;;;0.10;;
45228;SDS011;30967;51.728;8.682;2022-10-04T20:13:44;0.00;;;0.00;;
45228;SDS011;30967;51.728;8.682;2022-10-04T20:21:51;0.10;;;0.10;;
45228;SDS011;30967;51.728;8.682;2022-10-04T20:27:02;0.10;;;0.10;;
45228;SDS011;30967;51.728;8.682;2022-10-04T20:32:05;0.10;;;0.10;;
45228;SDS011;30967;51.728;8.682;2022-10-04T20:37:05;0.10;;;0.10;;
45228;SDS011;30967;51.728;8.682;2022-10-04T20:42:10;0.00;;;0.00;;
45228;SDS011;30967;51.728;8.682;2022-10-04T20:44:56;0.10;;;0.10;;
45228;SDS011;30967;51.728;8.682;2022-10-04T20:47:48;0.10;;;0.10;;
45228;SDS011;30967;51.728;8.682;2022-10-04T20:50:24;0.10;;;0.10;;
45228;SDS011;30967;51.728;8.682;2022-10-04T20:52:59;0.10;;;0.10;;
45228;SDS011;30967;51.728;8.682;2022-10-04T20:55:34;0.10;;;0.10;;
45228;SDS011;30967;51.728;8.682;2022-10-04T20:58:02;0.10;;;0.10;;
45228;SDS011;30967;51.728;8.682;2022-10-04T21:01:00;0.10;;;0.10;;
45228;SDS011;30967;51.728;8.682;2022-10-04T21:03:40;0.10;;;0.10;;
45228;SDS011;30967;51.728;8.682;2022-10-04T21:06:07;0.10;;;0.10;;
45228;SDS011;30967;51.728;8.682;2022-10-04T21:08:34;0.10;;;0.10;;
45228;SDS011;30967;51.728;8.682;2022-10-04T21:11:17;0.10;;;0.10;;
45228;SDS011;30967;51.728;8.682;2022-10-04T21:22:05;0.10;;;0.10;;
45228;SDS011;30967;51.728;8.682;2022-10-04T21:24:33;0.10;;;0.10;;
45228;SDS011;30967;51.728;8.682;2022-10-04T21:27:01;0.10;;;0.10;;
45228;SDS011;30967;51.728;8.682;2022-10-04T21:29:29;0.10;;;0.10;;
45228;SDS011;30967;51.728;8.682;2022-10-04T21:31:55;0.10;;;0.10;;
45228;SDS011;30967;51.728;8.682;2022-10-04T21:34:22;0.10;;;0.10;;
45228;SDS011;30967;51.728;8.682;2022-10-04T21:36:48;0.10;;;0.10;;
45228;SDS011;30967;51.728;8.682;2022-10-04T21:39:14;0.10;;;0.10;;
45228;SDS011;30967;51.728;8.682;2022-10-04T21:41:39;0.10;;;0.10;;
45228;SDS011;30967;51.728;8.682;2022-10-04T21:44:05;0.10;;;0.10;;
45228;SDS011;30967;51.728;8.682;2022-10-04T21:46:37;0.10;;;0.10;;
45228;SDS011;30967;51.728;8.682;2022-10-04T21:49:03;0.10;;;0.10;;
45228;SDS011;30967;51.728;8.682;2022-10-04T21:51:37;0.10;;;0.10;;
45228;SDS011;30967;51.728;8.682;2022-10-04T21:54:04;0.10;;;0.10;;
45228;SDS011;30967;51.728;8.682;2022-10-04T21:56:37;0.10;;;0.10;;
45228;SDS011;30967;51.728;8.682;2022-10-04T21:59:05;0.10;;;0.10;;
45228;SDS011;30967;51.728;8.682;2022-10-04T22:01:31;0.10;;;0.10;;
45228;SDS011;30967;51.728;8.682;2022-10-04T22:03:58;0.10;;;0.10;;
45228;SDS011;30967;51.728;8.682;2022-10-04T22:06:24;0.10;;;0.10;;
45228;SDS011;30967;51.728;8.682;2022-10-04T22:08:49;0.10;;;0.10;;
45228;SDS011;30967;51.728;8.682;2022-10-04T22:11:15;0.10;;;0.10;;
45228;SDS011;30967;51.728;8.682;2022-10-04T22:13:41;0.10;;;0.10;;
45228;SDS011;30967;51.728;8.682;2022-10-04T22:16:07;0.10;;;0.10;;
45228;SDS011;30967;51.728;8.682;2022-10-04T22:18:33;0.10;;;0.10;;
45228;SDS011;30967;51.728;8.682;2022-10-04T22:20:59;0.10;;;0.10;;
45228;SDS011;30967;51.728;8.682;2022-10-04T22:23:26;0.10;;;0.10;;
45228;SDS011;30967;51.728;8.682;2022-10-04T22:25:53;0.10;;;0.10;;
45228;SDS011;30967;51.728;8.682;2022-10-04T22:30:56;0.10;;;0.10;;
45228;SDS011;30967;51.728;8.682;2022-10-04T22:35:57;0.10;;;0.10;;
45228;SDS011;30967;51.728;8.682;2022-10-04T22:38:39;0.10;;;0.10;;
45228;SDS011;30967;51.728;8.682;2022-10-04T22:41:14;0.10;;;0.10;;
45228;SDS011;30967;51.728;8.682;2022-10-04T22:43:44;0.10;;;0.10;;
45228;SDS011;30967;51.728;8.682;2022-10-04T22:46:13;0.10;;;0.10;;
45228;SDS011;30967;51.728;8.682;2022-10-04T22:48:42;0.10;;;0.10;;
45228;SDS011;30967;51.728;8.682;2022-10-04T22:51:09;0.10;;;0.10;;
45228;SDS011;30967;51.728;8.682;2022-10-04T22:53:38;0.10;;;0.10;;
45228;SDS011;30967;51.728;8.682;2022-10-04T22:56:09;0.10;;;0.10;;
45228;SDS011;30967;51.728;8.682;2022-10-04T22:58:43;0.10;;;0.10;;
45228;SDS011;30967;51.728;8.682;2022-10-04T23:01:13;0.10;;;0.10;;
45228;SDS011;30967;51.728;8.682;2022-10-04T23:03:43;0.10;;;0.10;;
45228;SDS011;30967;51.728;8.682;2022-10-04T23:06:10;0.10;;;0.10;;
45228;SDS011;30967;51.728;8.682;2022-10-04T23:08:40;0.10;;;0.10;;
45228;SDS011;30967;51.728;8.682;2022-10-04T23:11:06;0.10;;;0.10;;
45228;SDS011;30967;51.728;8.682;2022-10-04T23:13:34;0.10;;;0.10;;
45228;SDS011;30967;51.728;8.682;2022-10-04T23:16:13;0.10;;;0.10;;
45228;SDS011;30967;51.728;8.682;2022-10-04T23:18:42;0.10;;;0.10;;
45228;SDS011;30967;51.728;8.682;2022-10-04T23:21:13;0.10;;;0.10;;
45228;SDS011;30967;51.728;8.682;2022-10-04T23:23:47;0.10;;;0.10;;
45228;SDS011;30967;51.728;8.682;2022-10-04T23:26:19;0.10;;;0.10;;
45228;SDS011;30967;51.728;8.682;2022-10-04T23:28:52;0.10;;;0.10;;
45228;SDS011;30967;51.728;8.682;2022-10-04T23:31:25;0.10;;;0.10;;
45228;SDS011;30967;51.728;8.682;2022-10-04T23:33:52;0.10;;;0.10;;
45228;SDS011;30967;51.728;8.682;2022-10-04T23:38:48;0.10;;;0.10;;
45228;SDS011;30967;51.728;8.682;2022-10-04T23:41:17;0.10;;;0.10;;
45228;SDS011;30967;51.728;8.682;2022-10-04T23:43:45;0.10;;;0.10;;
45228;SDS011;30967;51.728;8.682;2022-10-04T23:46:14;0.10;;;0.10;;
45228;SDS011;30967;51.728;8.682;2022-10-04T23:48:42;0.10;;;0.10;;
45228;SDS011;30967;51.728;8.682;2022-10-04T23:51:17;0.10;;;0.10;;
45228;SDS011;30967;51.728;8.682;2022-10-04T23:53:44;0.10;;;0.10;;
45228;SDS011;30967;51.728;8.682;2022-10-04T23:58:45;0.10;;;0.10;;
